createdAt,value
2023-11-24T00:01:22.477Z,19.55
2023-11-24T00:04:08.760Z,12.85
2023-11-24T00:06:57.236Z,14.93
2023-11-24T00:09:45.801Z,14.65
2023-11-24T00:12:31.937Z,14.85
2023-11-24T00:15:18.308Z,11.27
2023-11-24T00:18:07.544Z,36.78
2023-11-24T00:20:55.353Z,8.88
2023-11-24T00:24:05.783Z,11.38
2023-11-24T00:26:54.782Z,19.88
2023-11-24T00:29:42.398Z,26.35
2023-11-24T00:32:29.021Z,8.77
2023-11-24T00:35:16.618Z,16.48
2023-11-24T00:38:02.901Z,9.13
2023-11-24T00:40:49.567Z,7.78
2023-11-24T00:43:37.643Z,13.02
2023-11-24T00:46:23.878Z,8.13
2023-11-24T00:49:10.204Z,25.38
2023-11-24T00:51:57.161Z,22.73
2023-11-24T00:54:43.230Z,16.52
2023-11-24T00:57:29.397Z,14.82
2023-11-24T01:00:17.917Z,9.57
2023-11-24T01:03:04.513Z,13.05
2023-11-24T01:05:50.681Z,8.32
2023-11-24T01:08:37.453Z,12.43
2023-11-24T01:11:23.625Z,8.55
2023-11-24T01:14:09.801Z,17.95
2023-11-24T01:16:56.228Z,13.18
2023-11-24T01:19:43.843Z,13.50
2023-11-24T01:22:30.004Z,15.00
2023-11-24T01:25:16.103Z,12.48
2023-11-24T01:28:02.800Z,14.52
2023-11-24T01:30:49.979Z,25.88
2023-11-24T01:33:36.291Z,14.43
2023-11-24T01:36:22.297Z,25.45
2023-11-24T01:39:11.675Z,20.48
2023-11-24T01:41:58.198Z,17.45
2023-11-24T01:44:45.800Z,21.50
2023-11-24T01:47:32.018Z,38.28
2023-11-24T01:50:18.345Z,21.67
2023-11-24T01:53:05.099Z,27.98
2023-11-24T01:55:51.252Z,18.35
2023-11-24T01:58:38.855Z,21.65
2023-11-24T02:01:26.228Z,15.90
2023-11-24T02:04:12.681Z,27.27
2023-11-24T02:06:59.282Z,21.05
2023-11-24T02:09:45.159Z,14.27
2023-11-24T02:12:31.413Z,15.80
2023-11-24T02:15:17.735Z,22.52
2023-11-24T02:18:04.030Z,28.30
2023-11-24T02:20:50.665Z,20.17
2023-11-24T02:23:37.169Z,15.15
2023-11-24T02:26:23.095Z,36.38
2023-11-24T02:29:10.770Z,14.40
2023-11-24T02:31:56.799Z,16.50
2023-11-24T02:34:42.974Z,21.63
2023-11-24T02:37:29.201Z,27.23
2023-11-24T02:40:15.837Z,21.92
2023-11-24T02:43:02.133Z,27.10
2023-11-24T02:45:48.463Z,19.33
2023-11-24T02:48:34.794Z,26.38
2023-11-24T02:51:20.836Z,24.20
2023-11-24T02:54:08.043Z,22.48
2023-11-24T02:56:54.968Z,12.57
2023-11-24T02:59:41.470Z,22.08
2023-11-24T03:02:27.487Z,17.67
2023-11-24T03:05:13.645Z,38.70
2023-11-24T03:07:59.773Z,34.70
2023-11-24T03:10:46.813Z,22.52
2023-11-24T03:13:33.337Z,31.42
2023-11-24T03:16:19.640Z,26.20
2023-11-24T03:19:05.988Z,25.23
2023-11-24T03:21:52.651Z,26.17
2023-11-24T03:24:39.217Z,27.13
2023-11-24T03:27:25.376Z,22.33
2023-11-24T03:30:12.072Z,19.67
2023-11-24T03:32:58.605Z,14.57
2023-11-24T03:35:44.759Z,18.55
2023-11-24T03:38:31.276Z,24.42
2023-11-24T03:41:17.640Z,32.90
2023-11-24T03:44:22.227Z,22.38
2023-11-24T03:47:08.745Z,32.47
2023-11-24T03:49:55.790Z,21.15
2023-11-24T03:52:42.057Z,17.55
2023-11-24T03:55:28.223Z,25.08
2023-11-24T03:58:15.092Z,21.50
2023-11-24T04:01:02.898Z,19.80
2023-11-24T04:03:49.671Z,27.27
2023-11-24T04:06:35.589Z,14.63
2023-11-24T04:09:22.000Z,22.27
2023-11-24T04:12:08.170Z,9.70
2023-11-24T04:14:54.526Z,16.55
2023-11-24T04:17:40.843Z,12.73
2023-11-24T04:20:27.201Z,11.32
2023-11-24T04:23:14.800Z,12.10
2023-11-24T04:26:01.237Z,24.98
2023-11-24T04:28:47.142Z,14.30
2023-11-24T04:31:33.378Z,13.85
2023-11-24T04:34:19.665Z,10.98
2023-11-24T04:37:05.870Z,28.88
2023-11-24T04:39:53.694Z,22.35
2023-11-24T04:42:39.983Z,24.38
2023-11-24T04:45:26.119Z,32.47
2023-11-24T04:48:16.734Z,14.75
2023-11-24T04:51:03.394Z,11.40
2023-11-24T04:53:49.420Z,15.68
2023-11-24T04:56:35.812Z,18.02
2023-11-24T04:59:23.017Z,12.43
2023-11-24T05:02:09.490Z,15.32
2023-11-24T05:04:56.894Z,9.40
2023-11-24T05:07:43.177Z,12.45
2023-11-24T05:10:29.287Z,15.25
2023-11-24T05:13:15.649Z,10.00
2023-11-24T05:16:02.091Z,17.95
2023-11-24T05:18:50.605Z,20.45
2023-11-24T05:21:40.568Z,12.00
2023-11-24T05:24:27.999Z,11.40
2023-11-24T05:27:14.209Z,29.10
2023-11-24T05:30:00.434Z,13.18
2023-11-24T05:32:46.589Z,11.25
2023-11-24T05:35:33.038Z,9.55
2023-11-24T05:38:19.150Z,15.90
2023-11-24T05:41:06.560Z,14.73
2023-11-24T05:43:53.492Z,29.83
2023-11-24T05:46:40.270Z,19.38
2023-11-24T05:49:26.618Z,17.63
2023-11-24T05:52:16.958Z,9.55
2023-11-24T05:55:03.445Z,13.93
2023-11-24T05:57:49.583Z,9.35
2023-11-24T06:00:36.943Z,12.00
2023-11-24T06:03:22.952Z,16.13
2023-11-24T06:06:09.234Z,11.35
2023-11-24T06:08:55.646Z,11.85
2023-11-24T06:11:42.607Z,35.85
2023-11-24T06:14:28.615Z,21.48
2023-11-24T06:17:15.155Z,24.38
2023-11-24T06:20:01.454Z,61.33
2023-11-24T06:22:52.101Z,37.33
2023-11-24T06:25:38.349Z,98.47
2023-11-24T06:28:26.130Z,31.95
2023-11-24T06:31:18.004Z,36.05
2023-11-24T06:34:04.269Z,31.02
2023-11-24T06:36:51.161Z,17.85
2023-11-24T06:39:37.983Z,44.70
2023-11-24T06:42:24.256Z,59.58
2023-11-24T06:45:11.217Z,40.65
2023-11-24T06:47:57.756Z,61.65
2023-11-24T06:50:44.041Z,66.95
2023-11-24T06:53:30.012Z,29.30
2023-11-24T06:56:16.253Z,48.13
2023-11-24T06:59:02.552Z,58.47
2023-11-24T07:01:49.827Z,40.67
2023-11-24T07:04:36.255Z,42.20
2023-11-24T07:07:22.688Z,43.67
2023-11-24T07:10:13.072Z,57.30
2023-11-24T07:13:00.595Z,91.03
2023-11-24T07:15:47.385Z,70.40
2023-11-24T07:18:34.528Z,49.03
2023-11-24T07:21:21.001Z,86.28
2023-11-24T07:24:07.141Z,51.92
2023-11-24T07:26:55.149Z,53.72
2023-11-24T07:29:42.058Z,29.38
2023-11-24T07:32:30.143Z,35.75
2023-11-24T07:35:16.385Z,22.73
2023-11-24T07:38:06.683Z,43.97
2023-11-24T07:40:52.878Z,58.42
2023-11-24T07:43:39.213Z,33.40
2023-11-24T07:46:26.505Z,44.17
2023-11-24T07:49:13.170Z,37.17
2023-11-24T07:51:59.441Z,55.72
2023-11-24T07:54:47.774Z,62.65
2023-11-24T07:57:34.041Z,37.03
2023-11-24T08:00:20.773Z,44.78
2023-11-24T08:03:10.200Z,100.47
2023-11-24T08:05:56.992Z,49.75
2023-11-24T08:08:43.673Z,104.65
2023-11-24T08:11:29.811Z,53.47
2023-11-24T08:14:15.965Z,79.68
2023-11-24T08:17:02.482Z,66.53
2023-11-24T08:19:50.644Z,28.00
2023-11-24T08:22:40.257Z,16.55
2023-11-24T08:25:36.513Z,34.85
2023-11-24T08:28:44.328Z,42.33
2023-11-24T08:31:49.911Z,30.63
2023-11-24T08:34:36.406Z,46.20
2023-11-24T08:37:22.839Z,38.25
2023-11-24T08:40:24.840Z,17.35
2023-11-24T08:43:12.007Z,24.67
2023-11-24T08:45:59.505Z,31.73
2023-11-24T08:48:45.814Z,28.40
2023-11-24T08:51:35.531Z,86.68
2023-11-24T08:54:26.203Z,17.85
2023-11-24T08:57:18.861Z,20.83
2023-11-24T09:03:00.943Z,25.17
2023-11-24T09:05:50.677Z,19.98
2023-11-24T09:08:38.722Z,14.07
2023-11-24T09:11:31.031Z,28.20
2023-11-24T09:14:18.212Z,21.67
2023-11-24T09:17:04.846Z,31.67
2023-11-24T09:19:52.169Z,40.95
2023-11-24T09:22:45.789Z,21.75
2023-11-24T09:25:52.368Z,35.85
2023-11-24T09:28:48.030Z,28.90
2023-11-24T09:31:38.399Z,27.63
2023-11-24T09:34:27.816Z,49.17
2023-11-24T09:37:17.003Z,34.85
2023-11-24T09:40:17.320Z,34.55
2023-11-24T09:43:07.288Z,34.70
2023-11-24T09:45:57.433Z,30.20
2023-11-24T09:48:46.208Z,42.67
2023-11-24T09:51:34.255Z,62.60
2023-11-24T09:54:22.777Z,59.25
2023-11-24T09:57:09.009Z,44.38
2023-11-24T10:00:06.155Z,37.05
2023-11-24T10:02:54.118Z,66.05
2023-11-24T10:05:43.560Z,70.28
2023-11-24T10:08:34.912Z,45.58
2023-11-24T10:11:29.685Z,38.25
2023-11-24T10:14:17.222Z,60.35
2023-11-24T10:17:03.472Z,45.00
2023-11-24T10:19:50.974Z,49.70
2023-11-24T10:22:38.989Z,51.67
2023-11-24T10:25:25.182Z,56.67
2023-11-24T10:28:12.294Z,212.95
2023-11-24T10:30:58.884Z,59.15
2023-11-24T10:33:45.494Z,63.90
2023-11-24T10:36:31.727Z,76.25
2023-11-24T10:39:19.320Z,78.65
2023-11-24T10:42:05.552Z,185.90
2023-11-24T10:45:00.742Z,75.20
2023-11-24T10:48:09.015Z,69.38
2023-11-24T10:51:01.265Z,57.78
2023-11-24T10:53:59.404Z,61.03
2023-11-24T10:56:48.634Z,222.02
2023-11-24T10:59:36.252Z,82.65
2023-11-24T11:02:22.486Z,78.57
2023-11-24T11:05:27.735Z,111.80
2023-11-24T11:08:30.939Z,116.78
2023-11-24T11:11:41.359Z,449.95
2023-11-24T11:14:36.541Z,126.95
2023-11-24T11:17:29.335Z,79.55
2023-11-24T11:20:26.232Z,82.65
2023-11-24T11:23:23.292Z,73.93
2023-11-24T11:26:11.985Z,66.30
2023-11-24T11:29:03.291Z,95.88
2023-11-24T11:31:55.285Z,97.88
2023-11-24T11:37:32.594Z,73.72
2023-11-24T11:40:20.970Z,73.45
2023-11-24T11:43:11.604Z,69.78
2023-11-24T11:46:03.487Z,107.47
2023-11-24T11:48:51.568Z,71.35
2023-11-24T11:51:39.872Z,218.68
2023-11-24T11:54:29.717Z,51.05
2023-11-24T11:57:15.674Z,56.33
2023-11-24T12:00:12.122Z,63.42
2023-11-24T12:03:00.725Z,38.80
2023-11-24T12:05:50.087Z,31.50
2023-11-24T12:08:43.946Z,41.53
2023-11-24T12:11:30.539Z,39.72
2023-11-24T12:14:17.160Z,45.55
2023-11-24T12:17:04.682Z,27.02
2023-11-24T12:19:53.498Z,25.60
2023-11-24T12:22:40.111Z,34.30
2023-11-24T12:25:26.681Z,44.33
2023-11-24T12:28:18.844Z,32.05
2023-11-24T12:31:05.562Z,28.50
2023-11-24T12:33:51.901Z,28.50
2023-11-24T12:36:39.104Z,28.95
2023-11-24T12:39:36.713Z,32.03
2023-11-24T12:42:23.964Z,20.67
2023-11-24T12:45:12.004Z,28.98
2023-11-24T12:48:10.143Z,20.80
2023-11-24T12:50:58.161Z,36.75
2023-11-24T12:53:44.147Z,28.00
2023-11-24T12:56:32.542Z,17.33
2023-11-24T12:59:19.641Z,20.98
2023-11-24T13:02:05.727Z,24.73
2023-11-24T13:04:54.217Z,16.00
2023-11-24T13:07:43.212Z,9.25
2023-11-24T13:10:31.849Z,23.85
2023-11-24T13:13:17.846Z,16.88
2023-11-24T13:16:07.688Z,22.42
2023-11-24T13:18:58.845Z,22.88
2023-11-24T13:21:45.222Z,32.00
2023-11-24T13:24:32.812Z,25.02
2023-11-24T13:27:19.396Z,24.05
2023-11-24T13:30:11.897Z,124.80
2023-11-24T13:32:58.109Z,70.60
2023-11-24T13:35:44.177Z,40.03
2023-11-24T13:38:30.528Z,151.00
2023-11-24T13:41:17.559Z,104.45
2023-11-24T13:44:05.539Z,19.17
2023-11-24T13:46:54.043Z,16.70
2023-11-24T13:49:41.573Z,7.55
2023-11-24T13:52:29.327Z,15.95
2023-11-24T13:55:50.011Z,8.60
2023-11-24T13:58:39.735Z,3.67
2023-11-24T14:01:28.483Z,5.88
2023-11-24T14:04:17.948Z,5.30
2023-11-24T14:07:04.853Z,3.95
2023-11-24T14:09:50.930Z,5.80
2023-11-24T14:12:37.909Z,6.43
2023-11-24T14:15:28.781Z,22.85
2023-11-24T14:18:14.705Z,5.25
2023-11-24T14:21:00.765Z,4.68
2023-11-24T14:23:47.059Z,3.80
2023-11-24T14:26:36.564Z,8.77
2023-11-24T14:29:22.901Z,34.55
2023-11-24T14:32:09.017Z,7.30
2023-11-24T14:34:55.314Z,7.95
2023-11-24T14:37:41.848Z,30.88
2023-11-24T14:40:29.759Z,24.65
2023-11-24T14:43:16.452Z,11.93
2023-11-24T14:46:02.596Z,4.25
2023-11-24T14:48:51.600Z,4.68
2023-11-24T14:51:39.766Z,30.83
2023-11-24T14:54:30.892Z,10.70
2023-11-24T14:57:17.132Z,13.18
2023-11-24T15:00:04.122Z,5.28
2023-11-24T15:02:52.879Z,5.47
2023-11-24T15:05:42.759Z,19.63
2023-11-24T15:08:29.758Z,7.80
2023-11-24T15:11:20.741Z,24.65
2023-11-24T15:14:14.733Z,23.23
2023-11-24T15:17:06.026Z,5.00
2023-11-24T15:20:03.478Z,18.25
2023-11-24T15:23:00.252Z,8.77
2023-11-24T15:25:53.928Z,21.88
2023-11-24T15:28:41.645Z,45.75
2023-11-24T15:31:33.393Z,14.25
2023-11-24T15:34:19.367Z,163.18
2023-11-24T15:37:05.886Z,51.95
2023-11-24T15:39:58.283Z,76.43
2023-11-24T15:42:45.047Z,84.10
2023-11-24T15:45:31.762Z,99.43
2023-11-24T15:48:18.911Z,318.50
2023-11-24T15:51:06.238Z,129.90
2023-11-24T15:53:52.207Z,110.75
2023-11-24T15:56:40.349Z,107.43
2023-11-24T15:59:26.892Z,131.85
2023-11-24T16:02:16.893Z,89.07
2023-11-24T16:05:05.879Z,338.25
2023-11-24T16:07:55.843Z,388.70
2023-11-24T16:10:47.040Z,113.55
2023-11-24T16:13:35.614Z,286.63
2023-11-24T16:16:21.642Z,355.75
2023-11-24T16:19:08.543Z,96.22
2023-11-24T16:21:55.044Z,262.52
2023-11-24T16:24:41.659Z,111.88
2023-11-24T16:27:28.554Z,97.63
2023-11-24T16:30:15.368Z,369.20
2023-11-24T16:33:01.686Z,281.42
2023-11-24T16:35:51.815Z,307.08
2023-11-24T16:38:40.321Z,76.72
2023-11-24T16:41:26.870Z,206.27
2023-11-24T16:44:17.026Z,67.05
2023-11-24T16:47:05.375Z,259.02
2023-11-24T16:49:51.283Z,231.90
2023-11-24T16:52:47.375Z,233.73
2023-11-24T16:55:34.963Z,141.43
2023-11-24T16:58:22.112Z,85.32
2023-11-24T17:01:21.104Z,66.97
2023-11-24T17:04:09.176Z,74.70
2023-11-24T17:06:56.132Z,39.70
2023-11-24T17:09:47.693Z,103.32
2023-11-24T17:12:34.124Z,240.77
2023-11-24T17:15:23.749Z,83.97
2023-11-24T17:18:11.629Z,270.55
2023-11-24T17:20:58.673Z,275.73
2023-11-24T17:23:44.952Z,125.30
2023-11-24T17:26:32.470Z,96.45
2023-11-24T17:29:19.397Z,91.68
2023-11-24T17:32:06.242Z,96.03
2023-11-24T17:34:52.557Z,216.70
2023-11-24T17:37:42.924Z,60.60
2023-11-24T17:40:33.303Z,25.55
2023-11-24T17:43:37.054Z,48.55
2023-11-24T17:46:39.404Z,20.92
2023-11-24T17:49:34.983Z,258.45
2023-11-24T17:52:30.387Z,50.67
2023-11-24T17:58:04.993Z,63.70
2023-11-24T18:00:51.309Z,77.60
2023-11-24T18:03:37.617Z,47.17
2023-11-24T18:06:26.467Z,25.92
2023-11-24T18:09:14.741Z,90.82
2023-11-24T18:12:01.254Z,69.25
2023-11-24T18:14:47.228Z,47.50
2023-11-24T18:17:33.987Z,48.70
2023-11-24T18:20:22.192Z,216.85
2023-11-24T18:23:08.347Z,43.80
2023-11-24T18:25:55.003Z,30.70
2023-11-24T18:28:42.102Z,308.48
2023-11-24T18:31:31.279Z,334.92
2023-11-24T18:34:17.582Z,91.43
2023-11-24T18:37:06.730Z,57.03
2023-11-24T18:39:53.450Z,104.65
2023-11-24T18:42:40.043Z,118.68
2023-11-24T18:45:26.263Z,162.93
2023-11-24T18:48:11.970Z,92.93
2023-11-24T18:50:58.144Z,43.78
2023-11-24T18:53:46.443Z,42.15
2023-11-24T18:56:32.615Z,149.45
2023-11-24T18:59:18.794Z,40.08
2023-11-24T19:02:08.237Z,131.35
2023-11-24T19:04:55.202Z,40.17
2023-11-24T19:07:42.284Z,27.63
2023-11-24T19:10:28.950Z,49.72
2023-11-24T19:13:17.650Z,3.42
2023-11-24T19:16:04.162Z,2.35
2023-11-24T19:18:50.097Z,1.83
2023-11-24T19:21:35.953Z,1.13
2023-11-24T19:24:24.420Z,1.25
2023-11-24T19:27:10.335Z,1.75
2023-11-24T19:29:56.789Z,2.13
2023-11-24T19:32:42.766Z,2.42
2023-11-24T19:35:28.936Z,1.23
2023-11-24T19:38:15.099Z,1.08
2023-11-24T19:41:07.836Z,4.90
2023-11-24T19:43:54.048Z,1.88
2023-11-24T19:46:40.344Z,9.60
2023-11-24T19:49:27.070Z,2.90
2023-11-24T19:52:13.162Z,2.83
2023-11-24T19:55:02.479Z,14.32
2023-11-24T19:57:48.398Z,1.35
2023-11-24T20:00:35.796Z,1.85
2023-11-24T20:03:22.367Z,3.40
2023-11-24T20:06:08.935Z,2.67
2023-11-24T20:08:55.385Z,3.10
2023-11-24T20:11:41.594Z,8.23
2023-11-24T20:14:27.877Z,5.15
2023-11-24T20:17:14.792Z,8.10
2023-11-24T20:20:03.204Z,8.00
2023-11-24T20:22:50.141Z,10.88
2023-11-24T20:25:36.346Z,4.72
2023-11-24T20:28:22.895Z,11.90
2023-11-24T20:31:10.224Z,12.95
2023-11-24T20:33:56.941Z,12.23
2023-11-24T20:36:43.340Z,8.90
2023-11-24T20:39:30.385Z,33.47
2023-11-24T20:42:17.332Z,8.02
2023-11-24T20:45:04.502Z,7.82
2023-11-24T20:47:50.915Z,1.27
2023-11-24T20:50:37.323Z,2.60
2023-11-24T20:53:23.548Z,4.03
2023-11-24T20:56:10.675Z,4.25
2023-11-24T20:58:56.617Z,2.38
2023-11-24T21:01:43.056Z,2.20
2023-11-24T21:04:29.192Z,1.58
2023-11-24T21:07:17.390Z,1.13
2023-11-24T21:10:05.544Z,4.65
2023-11-24T21:12:52.889Z,2.30
2023-11-24T21:15:39.316Z,1.30
2023-11-24T21:18:28.461Z,2.50
2023-11-24T21:21:16.216Z,2.38
2023-11-24T21:24:02.695Z,1.85
2023-11-24T21:26:48.893Z,1.42
2023-11-24T21:29:34.702Z,1.55
2023-11-24T21:32:26.461Z,1.27
2023-11-24T21:35:13.334Z,0.90
2023-11-24T21:37:59.419Z,0.80
2023-11-24T21:40:46.403Z,3.40
2023-11-24T21:43:32.834Z,0.70
2023-11-24T21:46:22.278Z,1.42
2023-11-24T21:49:08.382Z,1.80
2023-11-24T21:51:54.495Z,6.03
2023-11-24T21:54:41.448Z,7.30
2023-11-24T21:57:29.676Z,4.03
2023-11-24T22:00:18.945Z,4.88
2023-11-24T22:03:05.915Z,3.63
2023-11-24T22:05:52.922Z,2.78
2023-11-24T22:08:39.068Z,1.30
2023-11-24T22:11:24.971Z,2.50
2023-11-24T22:14:10.898Z,1.90
2023-11-24T22:16:57.345Z,3.85
2023-11-24T22:19:43.582Z,13.15
2023-11-24T22:22:29.881Z,16.20
2023-11-24T22:25:16.133Z,4.30
2023-11-24T22:28:02.549Z,12.63
2023-11-24T22:30:48.756Z,3.33
2023-11-24T22:33:35.009Z,3.53
2023-11-24T22:36:22.033Z,15.68
2023-11-24T22:39:08.560Z,2.25
2023-11-24T22:41:54.617Z,1.40
2023-11-24T22:44:40.697Z,1.25
2023-11-24T22:47:26.784Z,1.40
2023-11-24T22:50:15.702Z,1.45
2023-11-24T22:53:01.955Z,2.03
2023-11-24T22:55:48.104Z,1.58
2023-11-24T22:58:34.586Z,1.27
2023-11-24T23:01:22.748Z,1.02
2023-11-24T23:04:11.396Z,0.90
2023-11-24T23:06:57.427Z,8.68
2023-11-24T23:09:45.522Z,1.52
2023-11-24T23:12:31.710Z,3.65
2023-11-24T23:15:17.946Z,2.08
2023-11-24T23:18:15.550Z,0.98
2023-11-24T23:21:03.369Z,0.70
2023-11-24T23:23:49.806Z,0.70
2023-11-24T23:26:35.662Z,0.80
2023-11-24T23:29:22.116Z,0.80
2023-11-24T23:32:08.368Z,0.90
2023-11-24T23:34:54.382Z,1.17
2023-11-24T23:37:44.127Z,1.27
2023-11-24T23:40:31.720Z,3.20
2023-11-24T23:43:19.414Z,0.80
2023-11-24T23:46:19.308Z,1.00
2023-11-24T23:49:06.775Z,0.90
2023-11-24T23:51:53.015Z,1.50
2023-11-24T23:54:40.647Z,1.30
2023-11-24T23:57:26.941Z,0.60
